createdAt,value
2022-08-26T00:01:56.966Z,7.53
2022-08-26T00:04:25.747Z,9.15
2022-08-26T00:06:56.766Z,7.95
2022-08-26T00:09:25.594Z,7.63
2022-08-26T00:11:54.294Z,8.40
2022-08-26T00:14:27.067Z,8.77
2022-08-26T00:16:56.822Z,7.20
2022-08-26T00:19:24.763Z,7.43
2022-08-26T00:21:51.955Z,7.53
2022-08-26T00:24:21.640Z,7.97
2022-08-26T00:26:49.821Z,7.70
2022-08-26T00:29:18.207Z,7.70
2022-08-26T00:31:45.691Z,7.25
2022-08-26T00:34:14.305Z,7.70
2022-08-26T00:36:42.734Z,9.23
2022-08-26T00:39:10.350Z,8.30
2022-08-26T00:41:41.313Z,7.20
2022-08-26T00:44:11.129Z,6.95
2022-08-26T00:46:51.042Z,7.72
2022-08-26T00:49:37.750Z,7.93
2022-08-26T00:52:13.150Z,8.43
2022-08-26T00:54:49.480Z,9.32
2022-08-26T00:57:19.645Z,7.40
2022-08-26T00:59:54.798Z,8.95
2022-08-26T01:02:22.560Z,7.85
2022-08-26T01:04:57.931Z,9.60
2022-08-26T01:07:30.261Z,7.95
2022-08-26T01:10:01.766Z,8.43
2022-08-26T01:12:35.285Z,7.55
2022-08-26T01:15:08.555Z,9.20
2022-08-26T01:17:38.912Z,8.45
2022-08-26T01:20:36.592Z,8.15
2022-08-26T01:23:09.980Z,9.85
2022-08-26T01:25:44.874Z,7.80
2022-08-26T01:28:27.986Z,9.68
2022-08-26T01:30:57.170Z,7.97
2022-08-26T01:33:41.987Z,8.70
2022-08-26T01:36:11.793Z,7.45
2022-08-26T01:38:40.815Z,8.55
2022-08-26T01:41:12.471Z,8.40
2022-08-26T01:43:53.468Z,9.23
2022-08-26T01:46:23.654Z,8.88
2022-08-26T01:48:54.401Z,7.63
2022-08-26T01:51:24.600Z,8.00
2022-08-26T01:53:51.953Z,8.00
2022-08-26T01:56:23.456Z,8.02
2022-08-26T01:58:59.470Z,8.88
2022-08-26T02:01:29.228Z,9.00
2022-08-26T02:04:20.977Z,8.00
2022-08-26T02:06:49.791Z,9.10
2022-08-26T02:09:21.403Z,8.52
2022-08-26T02:11:48.709Z,9.98
2022-08-26T02:14:36.548Z,8.88
2022-08-26T02:17:11.785Z,9.00
2022-08-26T02:19:45.210Z,9.75
2022-08-26T02:22:21.658Z,9.45
2022-08-26T02:25:00.647Z,9.93
2022-08-26T02:27:34.202Z,8.77
2022-08-26T02:30:23.581Z,8.57
2022-08-26T02:32:51.767Z,8.90
2022-08-26T02:35:22.862Z,10.07
2022-08-26T02:37:52.152Z,9.20
2022-08-26T02:40:27.113Z,9.48
2022-08-26T02:42:56.949Z,9.95
2022-08-26T02:45:26.168Z,9.98
2022-08-26T02:47:53.697Z,8.90
2022-08-26T02:50:21.208Z,9.13
2022-08-26T02:52:48.779Z,8.88
2022-08-26T02:55:16.495Z,10.75
2022-08-26T02:57:43.888Z,10.63
2022-08-26T03:00:15.370Z,9.68
2022-08-26T03:02:42.712Z,9.35
2022-08-26T03:05:12.034Z,9.63
2022-08-26T03:07:39.634Z,11.55
2022-08-26T03:10:08.575Z,10.35
2022-08-26T03:12:36.999Z,11.75
2022-08-26T03:15:16.066Z,11.35
2022-08-26T03:17:49.128Z,9.23
2022-08-26T03:20:18.627Z,10.30
2022-08-26T03:22:46.728Z,12.32
2022-08-26T03:25:16.942Z,10.20
2022-08-26T03:27:44.428Z,10.98
2022-08-26T03:30:33.286Z,8.90
2022-08-26T03:33:01.316Z,10.07
2022-08-26T03:35:28.672Z,10.68
2022-08-26T03:37:55.857Z,9.60
2022-08-26T03:40:23.753Z,9.80
2022-08-26T03:42:56.392Z,10.90
2022-08-26T03:45:23.592Z,11.52
2022-08-26T03:47:52.495Z,9.98
2022-08-26T03:50:23.145Z,8.52
2022-08-26T03:52:54.545Z,8.90
2022-08-26T03:55:31.818Z,9.48
2022-08-26T03:58:00.416Z,11.43
2022-08-26T04:00:28.011Z,10.27
2022-08-26T04:02:55.099Z,9.98
2022-08-26T04:05:23.733Z,8.75
2022-08-26T04:07:51.988Z,9.80
2022-08-26T04:10:28.396Z,11.15
2022-08-26T04:12:59.394Z,12.38
2022-08-26T04:15:27.434Z,10.65
2022-08-26T04:17:55.972Z,12.30
2022-08-26T04:20:25.552Z,10.82
2022-08-26T04:22:52.967Z,13.50
2022-08-26T04:25:20.653Z,10.50
2022-08-26T04:27:48.270Z,9.57
2022-08-26T04:30:16.636Z,10.02
2022-08-26T04:32:44.216Z,10.65
2022-08-26T04:35:11.629Z,9.77
2022-08-26T04:37:39.013Z,9.82
2022-08-26T04:40:11.301Z,9.80
2022-08-26T04:42:38.463Z,9.95
2022-08-26T04:45:10.292Z,12.27
2022-08-26T04:47:38.731Z,10.18
2022-08-26T04:50:08.302Z,13.00
2022-08-26T04:52:38.170Z,9.98
2022-08-26T04:55:08.358Z,8.80
2022-08-26T04:57:36.209Z,10.80
2022-08-26T05:00:07.781Z,11.50
2022-08-26T05:02:34.862Z,12.95
2022-08-26T05:05:02.490Z,9.32
2022-08-26T05:07:30.215Z,10.90
2022-08-26T05:10:00.183Z,10.52
2022-08-26T05:12:29.906Z,9.77
2022-08-26T05:14:57.327Z,12.38
2022-08-26T05:17:24.485Z,10.18
2022-08-26T05:19:51.564Z,9.85
2022-08-26T05:22:20.177Z,10.15
2022-08-26T05:24:47.467Z,9.73
2022-08-26T05:27:14.873Z,10.20
2022-08-26T05:29:42.483Z,9.55
2022-08-26T05:32:11.392Z,11.02
2022-08-26T05:34:38.369Z,8.93
2022-08-26T05:37:06.706Z,10.20
2022-08-26T05:39:34.381Z,9.60
2022-08-26T05:42:01.604Z,9.80
2022-08-26T05:44:29.335Z,8.85
2022-08-26T05:47:16.294Z,11.45
2022-08-26T05:49:51.428Z,10.43
2022-08-26T05:52:20.147Z,9.40
2022-08-26T05:54:47.652Z,9.93
2022-08-26T05:57:15.925Z,9.60
2022-08-26T05:59:43.195Z,10.80
2022-08-26T06:02:10.303Z,9.55
2022-08-26T06:04:37.309Z,10.00
2022-08-26T06:07:04.379Z,10.48
2022-08-26T06:09:32.908Z,9.30
2022-08-26T06:12:01.838Z,9.95
2022-08-26T06:14:30.436Z,9.40
2022-08-26T06:16:57.736Z,9.55
2022-08-26T06:19:24.729Z,10.05
2022-08-26T06:21:54.701Z,9.48
2022-08-26T06:24:40.834Z,9.10
2022-08-26T06:27:13.362Z,10.20
2022-08-26T06:29:40.450Z,10.02
2022-08-26T06:32:08.783Z,8.85
2022-08-26T06:34:35.895Z,8.75
2022-08-26T06:37:03.479Z,10.00
2022-08-26T06:39:31.863Z,9.63
2022-08-26T06:42:00.570Z,9.43
2022-08-26T06:44:28.122Z,10.05
2022-08-26T06:46:55.276Z,9.00
2022-08-26T06:49:27.020Z,8.80
2022-08-26T06:51:59.637Z,8.57
2022-08-26T06:54:31.512Z,8.75
2022-08-26T06:56:59.422Z,9.23
2022-08-26T06:59:26.559Z,8.50
2022-08-26T07:01:54.788Z,8.20
2022-08-26T07:04:24.464Z,9.95
2022-08-26T07:06:53.715Z,9.00
2022-08-26T07:09:33.284Z,9.40
2022-08-26T07:12:04.151Z,9.05
2022-08-26T07:14:32.184Z,9.05
2022-08-26T07:17:00.246Z,8.65
2022-08-26T07:19:34.135Z,8.98
2022-08-26T07:22:05.089Z,8.75
2022-08-26T07:24:40.221Z,8.93
2022-08-26T07:27:15.282Z,8.48
2022-08-26T07:29:43.604Z,8.65
2022-08-26T07:32:13.419Z,9.57
2022-08-26T07:34:42.020Z,8.73
2022-08-26T07:37:10.300Z,8.10
2022-08-26T07:39:40.391Z,8.98
2022-08-26T07:42:10.657Z,8.43
2022-08-26T07:44:39.736Z,8.55
2022-08-26T07:47:24.835Z,7.88
2022-08-26T07:49:56.599Z,8.25
2022-08-26T07:52:27.370Z,8.20
2022-08-26T07:55:00.913Z,8.00
2022-08-26T07:57:29.271Z,7.90
2022-08-26T07:59:56.736Z,7.05
2022-08-26T08:02:28.513Z,7.47
2022-08-26T08:04:56.822Z,7.55
2022-08-26T08:07:38.577Z,6.63
2022-08-26T08:10:22.436Z,6.75
2022-08-26T08:12:52.838Z,7.10
2022-08-26T08:15:26.433Z,6.32
2022-08-26T08:17:55.578Z,6.82
2022-08-26T08:20:27.372Z,6.40
2022-08-26T08:22:54.933Z,6.65
2022-08-26T08:25:23.019Z,6.70
2022-08-26T08:27:50.646Z,6.30
2022-08-26T08:30:24.494Z,5.55
2022-08-26T08:32:52.808Z,6.18
2022-08-26T08:35:22.632Z,5.80
2022-08-26T08:37:54.658Z,6.03
2022-08-26T08:40:26.570Z,5.45
2022-08-26T08:43:13.336Z,6.30
2022-08-26T08:46:07.716Z,5.63
2022-08-26T08:48:43.332Z,5.72
2022-08-26T08:51:39.535Z,5.90
2022-08-26T08:54:08.486Z,5.32
2022-08-26T08:56:47.038Z,5.30
2022-08-26T08:59:26.430Z,5.80
2022-08-26T09:02:40.487Z,5.85
2022-08-26T09:05:31.881Z,5.78
2022-08-26T09:08:32.158Z,6.32
2022-08-26T09:11:01.316Z,5.85
2022-08-26T09:13:29.257Z,5.15
2022-08-26T09:16:15.866Z,5.53
2022-08-26T09:19:24.986Z,6.10
2022-08-26T09:21:59.258Z,5.80
2022-08-26T09:24:29.355Z,5.82
2022-08-26T09:26:58.216Z,5.72
2022-08-26T09:29:40.861Z,5.40
2022-08-26T09:32:25.168Z,5.90
2022-08-26T09:35:03.736Z,5.60
2022-08-26T09:40:36.851Z,6.00
2022-08-26T09:43:22.771Z,5.50
2022-08-26T09:46:12.177Z,5.43
2022-08-26T09:48:41.189Z,5.80
2022-08-26T09:51:23.043Z,5.47
2022-08-26T09:54:01.840Z,5.60
2022-08-26T09:56:39.160Z,5.22
2022-08-26T09:59:11.992Z,5.15
2022-08-26T10:01:43.168Z,5.82
2022-08-26T10:04:21.192Z,5.90
2022-08-26T10:07:01.084Z,6.00
2022-08-26T10:09:33.888Z,6.30
2022-08-26T10:12:20.517Z,5.18
2022-08-26T10:14:59.691Z,4.82
2022-08-26T10:18:27.916Z,6.95
2022-08-26T10:21:52.238Z,5.50
2022-08-26T10:24:41.002Z,5.60
2022-08-26T10:27:54.879Z,5.15
2022-08-26T10:30:31.593Z,5.22
2022-08-26T10:33:10.799Z,5.70
2022-08-26T10:36:00.009Z,5.07
2022-08-26T10:38:37.775Z,5.05
2022-08-26T10:41:13.963Z,5.95
2022-08-26T10:43:56.400Z,5.15
2022-08-26T10:46:28.597Z,5.88
2022-08-26T10:49:15.609Z,5.30
2022-08-26T10:52:16.576Z,5.55
2022-08-26T10:55:03.129Z,5.93
2022-08-26T10:58:26.708Z,4.85
2022-08-26T11:01:35.660Z,5.88
2022-08-26T11:04:48.446Z,5.63
2022-08-26T11:07:51.411Z,5.93
2022-08-26T11:10:19.270Z,6.13
2022-08-26T11:13:03.494Z,6.47
2022-08-26T11:15:33.377Z,6.32
2022-08-26T11:18:08.925Z,5.63
2022-08-26T11:20:46.219Z,6.10
2022-08-26T11:23:23.046Z,6.00
2022-08-26T11:25:57.618Z,6.13
2022-08-26T11:28:36.922Z,6.32
2022-08-26T11:31:10.824Z,6.03
2022-08-26T11:34:01.982Z,5.90
2022-08-26T11:36:49.097Z,6.35
2022-08-26T11:39:54.828Z,5.88
2022-08-26T11:42:55.568Z,5.90
2022-08-26T11:45:40.175Z,6.30
2022-08-26T11:48:33.277Z,6.65
2022-08-26T11:51:20.308Z,6.43
2022-08-26T11:54:35.123Z,7.10
2022-08-26T11:57:11.742Z,7.82
2022-08-26T11:59:45.288Z,6.88
2022-08-26T12:02:17.860Z,6.43
2022-08-26T12:04:51.050Z,7.10
2022-08-26T12:07:28.672Z,7.47
2022-08-26T12:10:11.350Z,6.63
2022-08-26T12:12:40.280Z,6.35
2022-08-26T12:15:21.894Z,6.55
2022-08-26T12:17:54.375Z,6.65
2022-08-26T12:20:48.622Z,7.03
2022-08-26T12:23:43.865Z,6.13
2022-08-26T12:26:38.312Z,4.43
2022-08-26T12:29:27.870Z,4.47
2022-08-26T12:32:18.220Z,4.53
2022-08-26T12:34:49.048Z,4.47
2022-08-26T12:37:16.943Z,4.43
2022-08-26T12:39:46.388Z,4.80
2022-08-26T12:42:13.370Z,3.97
2022-08-26T12:45:06.423Z,4.70
2022-08-26T12:47:44.618Z,4.00
2022-08-26T12:50:36.981Z,4.07
2022-08-26T12:53:11.363Z,4.53
2022-08-26T12:55:45.088Z,5.65
2022-08-26T12:58:23.901Z,4.65
2022-08-26T13:01:09.031Z,5.40
2022-08-26T13:03:38.728Z,6.00
2022-08-26T13:06:31.446Z,5.75
2022-08-26T13:09:10.523Z,6.95
2022-08-26T13:11:40.444Z,6.05
2022-08-26T13:14:24.139Z,6.45
2022-08-26T13:16:53.089Z,8.18
2022-08-26T13:19:25.544Z,8.18
2022-08-26T13:21:57.491Z,7.53
2022-08-26T13:24:38.513Z,8.43
2022-08-26T13:27:09.991Z,5.13
2022-08-26T13:29:37.328Z,6.80
2022-08-26T13:32:07.879Z,6.32
2022-08-26T13:34:38.137Z,7.88
2022-08-26T13:37:06.947Z,7.70
2022-08-26T13:39:45.227Z,7.25
2022-08-26T13:42:12.542Z,9.02
2022-08-26T13:44:47.724Z,9.70
2022-08-26T13:47:15.556Z,9.23
2022-08-26T13:49:43.876Z,7.43
2022-08-26T13:52:11.804Z,8.10
2022-08-26T13:54:39.211Z,8.50
2022-08-26T13:57:09.808Z,7.80
2022-08-26T13:59:40.103Z,7.65
2022-08-26T14:02:07.996Z,8.40
2022-08-26T14:04:55.494Z,7.60
2022-08-26T14:07:26.241Z,8.23
2022-08-26T14:09:53.447Z,9.07
2022-08-26T14:12:20.692Z,10.35
2022-08-26T14:14:48.121Z,11.98
2022-08-26T14:17:30.715Z,9.75
2022-08-26T14:20:00.275Z,9.52
2022-08-26T14:22:27.717Z,8.90
2022-08-26T14:24:55.036Z,8.63
2022-08-26T14:27:22.059Z,9.07
2022-08-26T14:29:49.091Z,8.68
2022-08-26T14:32:27.140Z,9.20
2022-08-26T14:35:00.175Z,7.10
2022-08-26T14:37:27.455Z,7.53
2022-08-26T14:39:54.598Z,8.20
2022-08-26T14:42:31.561Z,8.27
2022-08-26T14:45:04.705Z,5.80
2022-08-26T14:47:31.922Z,7.68
2022-08-26T14:49:58.929Z,6.88
2022-08-26T14:52:26.269Z,6.18
2022-08-26T14:54:54.870Z,8.32
2022-08-26T14:57:22.510Z,8.20
2022-08-26T14:59:52.606Z,8.55
2022-08-26T15:02:32.412Z,6.03
2022-08-26T15:05:03.129Z,5.63
2022-08-26T15:07:30.522Z,5.70
2022-08-26T15:09:57.902Z,6.05
2022-08-26T15:12:24.940Z,5.13
2022-08-26T15:14:52.214Z,6.22
2022-08-26T15:17:19.271Z,5.68
2022-08-26T15:19:46.700Z,7.05
2022-08-26T15:22:13.758Z,6.90
2022-08-26T15:24:40.822Z,6.40
2022-08-26T15:27:09.053Z,6.43
2022-08-26T15:29:36.411Z,5.80
2022-08-26T15:32:04.833Z,6.30
2022-08-26T15:34:32.179Z,6.30
2022-08-26T15:36:59.828Z,5.07
2022-08-26T15:39:28.365Z,6.70
2022-08-26T15:42:00.055Z,6.50
2022-08-26T15:44:28.127Z,7.43
2022-08-26T15:47:00.795Z,4.63
2022-08-26T15:49:27.987Z,3.92
2022-08-26T15:51:58.343Z,5.13
2022-08-26T15:54:25.414Z,5.80
2022-08-26T15:56:53.046Z,6.25
2022-08-26T15:59:22.033Z,5.10
2022-08-26T16:01:49.713Z,3.85
2022-08-26T16:04:18.504Z,4.25
2022-08-26T16:06:50.114Z,4.97
2022-08-26T16:09:18.668Z,3.60
2022-08-26T16:11:45.669Z,3.50
2022-08-26T16:14:12.779Z,4.00
2022-08-26T16:16:40.388Z,3.67
2022-08-26T16:19:08.814Z,4.07
2022-08-26T16:21:36.304Z,5.07
2022-08-26T16:24:05.677Z,4.40
2022-08-26T16:26:37.635Z,4.35
2022-08-26T16:29:10.641Z,4.75
2022-08-26T16:31:38.577Z,4.57
2022-08-26T16:34:07.681Z,4.53
2022-08-26T16:36:37.853Z,8.35
2022-08-26T16:39:07.372Z,5.85
2022-08-26T16:41:35.634Z,10.00
2022-08-26T16:44:06.789Z,11.70
2022-08-26T16:46:35.322Z,9.98
2022-08-26T16:49:04.551Z,11.52
2022-08-26T16:51:32.508Z,10.38
2022-08-26T16:54:07.072Z,8.23
2022-08-26T16:56:34.893Z,8.27
2022-08-26T16:59:10.520Z,5.72
2022-08-26T17:01:37.748Z,6.20
2022-08-26T17:04:05.560Z,5.93
2022-08-26T17:06:32.711Z,5.25
2022-08-26T17:08:59.759Z,4.53
2022-08-26T17:11:26.926Z,5.53
2022-08-26T17:13:53.954Z,5.20
2022-08-26T17:16:26.213Z,6.35
2022-08-26T17:18:56.519Z,5.65
2022-08-26T17:21:24.186Z,5.68
2022-08-26T17:23:51.916Z,5.53
2022-08-26T17:26:19.115Z,8.45
2022-08-26T17:28:46.147Z,8.88
2022-08-26T17:31:14.033Z,8.07
2022-08-26T17:33:41.547Z,7.13
2022-08-26T17:36:09.979Z,6.25
2022-08-26T17:38:38.146Z,4.80
2022-08-26T17:41:14.334Z,5.50
2022-08-26T17:43:41.818Z,5.32
2022-08-26T17:46:11.280Z,6.97
2022-08-26T17:48:40.536Z,6.13
2022-08-26T17:51:15.033Z,6.07
2022-08-26T17:53:43.034Z,7.47
2022-08-26T17:56:14.910Z,11.32
2022-08-26T17:58:50.936Z,10.82
2022-08-26T18:01:21.286Z,4.65
2022-08-26T18:03:49.317Z,8.73
2022-08-26T18:06:16.807Z,7.03
2022-08-26T18:08:44.865Z,6.82
2022-08-26T18:11:17.380Z,9.68
2022-08-26T18:13:47.147Z,4.78
2022-08-26T18:16:17.559Z,6.10
2022-08-26T18:18:46.421Z,7.95
2022-08-26T18:21:18.794Z,8.90
2022-08-26T18:23:47.515Z,14.07
2022-08-26T18:26:32.759Z,15.30
2022-08-26T18:29:00.614Z,16.40
2022-08-26T18:31:28.834Z,14.95
2022-08-26T18:33:56.231Z,16.38
2022-08-26T18:36:36.824Z,16.33
2022-08-26T18:39:06.856Z,17.20
2022-08-26T18:41:43.001Z,19.10
2022-08-26T18:44:13.596Z,18.00
2022-08-26T18:46:42.625Z,18.45
2022-08-26T18:49:14.514Z,19.05
2022-08-26T18:51:42.947Z,23.88
2022-08-26T18:54:10.611Z,23.67
2022-08-26T18:56:40.349Z,24.52
2022-08-26T18:59:08.533Z,22.83
2022-08-26T19:01:40.496Z,21.27
2022-08-26T19:04:14.114Z,20.02
2022-08-26T19:06:46.897Z,22.00
2022-08-26T19:09:17.885Z,20.30
2022-08-26T19:11:46.225Z,19.15
2022-08-26T19:14:15.896Z,18.88
2022-08-26T19:16:48.525Z,17.98
2022-08-26T19:19:16.326Z,16.08
2022-08-26T19:21:44.187Z,14.75
2022-08-26T19:24:19.116Z,15.35
2022-08-26T19:26:57.826Z,15.07
2022-08-26T19:29:33.031Z,12.18
2022-08-26T19:32:00.837Z,15.90
2022-08-26T19:34:27.929Z,17.38
2022-08-26T19:36:56.875Z,15.55
2022-08-26T19:39:25.254Z,16.65
2022-08-26T19:41:53.437Z,16.13
2022-08-26T19:44:41.574Z,14.95
2022-08-26T19:47:11.084Z,12.73
2022-08-26T19:49:38.952Z,13.20
2022-08-26T19:52:06.487Z,12.90
2022-08-26T19:54:35.200Z,14.55
2022-08-26T19:57:02.399Z,16.02
2022-08-26T19:59:29.436Z,12.38
2022-08-26T20:02:01.523Z,16.77
2022-08-26T20:04:31.623Z,17.83
2022-08-26T20:07:01.109Z,16.77
2022-08-26T20:09:30.653Z,20.35
2022-08-26T20:11:57.674Z,18.15
2022-08-26T20:14:27.055Z,18.67
2022-08-26T20:16:54.297Z,20.10
2022-08-26T20:19:40.366Z,19.23
2022-08-26T20:22:08.179Z,18.45
2022-08-26T20:24:35.979Z,19.67
2022-08-26T20:27:07.804Z,13.90
2022-08-26T20:29:36.642Z,13.95
2022-08-26T20:32:06.814Z,17.50
2022-08-26T20:34:35.317Z,18.00
2022-08-26T20:37:03.081Z,15.02
2022-08-26T20:39:30.179Z,19.52
2022-08-26T20:41:58.237Z,17.70
2022-08-26T20:44:26.810Z,18.75
2022-08-26T20:46:53.962Z,17.42
2022-08-26T20:49:21.334Z,18.83
2022-08-26T20:51:52.601Z,13.40
2022-08-26T20:54:26.236Z,13.73
2022-08-26T20:56:57.984Z,10.63
2022-08-26T20:59:26.148Z,10.10
2022-08-26T21:01:53.564Z,18.17
2022-08-26T21:04:25.589Z,19.90
2022-08-26T21:06:54.305Z,26.55
2022-08-26T21:09:24.140Z,21.25
2022-08-26T21:11:52.526Z,8.82
2022-08-26T21:14:20.593Z,13.95
2022-08-26T21:16:47.839Z,20.65
2022-08-26T21:19:20.175Z,17.70
2022-08-26T21:21:48.446Z,19.13
2022-08-26T21:24:16.678Z,15.05
2022-08-26T21:26:43.771Z,7.38
2022-08-26T21:29:10.899Z,9.57
2022-08-26T21:31:44.883Z,9.13
2022-08-26T21:34:18.642Z,11.55
2022-08-26T21:36:49.647Z,7.97
2022-08-26T21:39:17.183Z,8.82
2022-08-26T21:41:45.595Z,7.32
2022-08-26T21:44:15.150Z,13.27
2022-08-26T21:46:44.460Z,12.82
2022-08-26T21:49:15.923Z,13.82
2022-08-26T21:51:47.380Z,9.35
2022-08-26T21:54:15.492Z,15.68
2022-08-26T21:56:47.135Z,17.10
2022-08-26T21:59:18.352Z,16.33
2022-08-26T22:01:46.054Z,6.75
2022-08-26T22:04:13.631Z,8.15
2022-08-26T22:06:46.980Z,11.25
2022-08-26T22:09:19.824Z,10.75
2022-08-26T22:11:47.577Z,8.23
2022-08-26T22:14:16.685Z,9.43
2022-08-26T22:16:45.713Z,8.95
2022-08-26T22:19:23.603Z,11.48
2022-08-26T22:21:54.571Z,15.43
2022-08-26T22:24:24.727Z,16.13
2022-08-26T22:26:52.267Z,13.13
2022-08-26T22:29:20.188Z,13.10
2022-08-26T22:31:47.440Z,10.23
2022-08-26T22:34:17.279Z,10.15
2022-08-26T22:36:48.078Z,16.25
2022-08-26T22:39:20.175Z,12.18
2022-08-26T22:41:48.548Z,14.18
2022-08-26T22:44:18.250Z,17.25
2022-08-26T22:46:46.425Z,17.55
2022-08-26T22:49:16.443Z,18.75
2022-08-26T22:51:45.966Z,20.58
2022-08-26T22:54:14.628Z,18.20
2022-08-26T22:56:53.714Z,17.90
2022-08-26T22:59:21.198Z,17.75
2022-08-26T23:01:48.410Z,16.48
2022-08-26T23:04:16.490Z,16.98
2022-08-26T23:06:47.617Z,14.20
2022-08-26T23:09:17.950Z,10.00
2022-08-26T23:11:47.715Z,9.45
2022-08-26T23:14:17.140Z,12.82
2022-08-26T23:16:44.722Z,7.97
2022-08-26T23:19:15.820Z,7.07
2022-08-26T23:21:43.297Z,7.35
2022-08-26T23:24:13.955Z,8.15
2022-08-26T23:26:42.428Z,12.30
2022-08-26T23:29:12.962Z,13.10
2022-08-26T23:31:42.151Z,16.50
2022-08-26T23:34:29.433Z,23.58
2022-08-26T23:36:58.932Z,29.58
2022-08-26T23:39:26.384Z,29.48
2022-08-26T23:41:53.458Z,23.00
2022-08-26T23:44:20.783Z,28.90
2022-08-26T23:46:47.861Z,27.38
2022-08-26T23:49:14.875Z,31.08
2022-08-26T23:52:00.450Z,29.83
2022-08-26T23:54:27.671Z,24.65
2022-08-26T23:56:54.715Z,21.42
2022-08-26T23:59:21.760Z,20.15
